Time;durP1;ratioP1;P1;durP2;ratioP2;P2;SDS_P1;SDS_P2;PMS_P1;PMS_P2;Temp;Humidity;BMP_temperature;BMP_pressure;BME280_temperature;BME280_humidity;BME280_pressure;Samples;Min_cycle;Max_cycle;Signal;HPM_P1;HPM_P2
2023/04/22 00:02:18;;;;;;;53.20;3.95;;;;;;;22.13;59.55;99235.41;7309868;19;130858;-37
2023/04/22 00:04:45;;;;;;;27.65;2.60;;;;;;;22.19;59.86;99243.47;7312217;19;130315;-34
2023/04/22 00:07:11;;;;;;;38.10;3.17;;;;;;;22.19;59.11;99237.41;7308634;19;131325;-39
2023/04/22 00:09:37;;;;;;;77.97;5.80;;;;;;;22.21;59.17;99235.44;7308493;19;131512;-33
2023/04/22 00:12:02;;;;;;;68.85;4.40;;;;;;;22.19;59.70;99232.16;7310104;19;131119;-34
2023/04/22 00:14:28;;;;;;;44.15;3.63;;;;;;;22.17;59.83;99228.88;7309682;19;130249;-36
2023/04/22 00:16:53;;;;;;;25.00;2.30;;;;;;;22.19;59.69;99234.78;7308641;19;131065;-35
2023/04/22 00:19:18;;;;;;;49.30;3.83;;;;;;;22.18;59.25;99235.75;7309887;19;129307;-34
2023/04/22 00:21:44;;;;;;;25.70;2.28;;;;;;;22.21;59.71;99231.03;7310649;19;129716;-35
2023/04/22 00:24:09;;;;;;;40.13;3.38;;;;;;;22.16;59.62;99224.59;7310396;19;129425;-35
2023/04/22 00:26:34;;;;;;;54.25;4.07;;;;;;;22.17;59.26;99216.59;7310361;19;130916;-38
2023/04/22 00:29:00;;;;;;;33.85;2.80;;;;;;;22.17;59.92;99223.63;7308035;19;128964;-33
2023/04/22 00:31:25;;;;;;;30.88;2.65;;;;;;;22.18;59.80;99217.44;7308480;19;128982;-35
2023/04/22 00:33:51;;;;;;;33.87;2.83;;;;;;;22.17;59.61;99218.38;7311246;19;129967;-37
2023/04/22 00:36:16;;;;;;;35.97;2.90;;;;;;;22.17;59.36;99221.84;7308076;19;129605;-35
2023/04/22 00:38:47;;;;;;;92.85;6.20;;;;;;;22.16;59.43;99222.81;7309655;19;129153;-37
2023/04/22 00:41:13;;;;;;;37.08;2.60;;;;;;;22.16;59.61;99212.34;7310081;19;130233;-35
2023/04/22 00:43:38;;;;;;;28.23;2.60;;;;;;;22.16;59.05;99216.75;7301571;19;130032;-36
2023/04/22 00:46:04;;;;;;;40.72;3.45;;;;;;;22.11;59.42;99209.38;7308795;19;129212;-35
2023/04/22 00:48:30;;;;;;;52.10;3.63;;;;;;;22.15;59.63;99215.13;7310729;19;129610;-36
2023/04/22 00:50:55;;;;;;;43.55;3.45;;;;;;;22.07;59.15;99194.09;7306499;19;129707;-37
2023/04/22 00:53:21;;;;;;;62.87;4.67;;;;;;;22.15;59.26;99205.44;7309119;19;129646;-36
2023/04/22 00:55:46;;;;;;;33.27;2.63;;;;;;;22.19;59.15;99200.72;7311302;19;128946;-40
2023/04/22 00:58:12;;;;;;;98.70;6.50;;;;;;;22.15;59.24;99209.88;7315951;19;129987;-35
2023/04/22 01:00:37;;;;;;;27.63;2.35;;;;;;;22.16;59.89;99207.13;7313715;19;130115;-33
2023/04/22 01:03:05;;;;;;;58.60;4.27;;;;;;;22.15;59.47;99205.44;7314057;19;130274;-36
2023/04/22 01:05:31;;;;;;;55.22;4.13;;;;;;;22.16;59.12;99208.91;7313731;19;130489;-39
2023/04/22 01:08:00;;;;;;;57.65;3.92;;;;;;;22.14;59.76;99210.84;7315094;19;129464;-34
2023/04/22 01:10:26;;;;;;;31.00;2.67;;;;;;;22.14;59.23;99208.22;7314745;19;129457;-35
2023/04/22 01:12:51;;;;;;;55.42;3.67;;;;;;;22.14;59.23;99206.44;7312339;19;130322;-30
2023/04/22 01:15:16;;;;;;;41.58;3.20;;;;;;;22.15;58.83;99208.06;7314433;19;129272;-36
2023/04/22 01:17:42;;;;;;;60.72;4.22;;;;;;;22.14;59.80;99213.47;7310053;19;129313;-40
2023/04/22 01:20:10;;;;;;;46.38;3.95;;;;;;;22.16;59.24;99203.66;7311817;19;131572;-38
2023/04/22 01:22:41;;;;;;;31.15;2.85;;;;;;;22.15;59.58;99202.03;7315869;19;130503;-32
2023/04/22 01:25:08;;;;;;;39.65;3.25;;;;;;;22.13;59.11;99201.34;7312324;19;128849;-34
2023/04/22 01:27:35;;;;;;;52.65;3.75;;;;;;;22.12;59.64;99199.69;7305421;19;130467;-41
2023/04/22 01:30:00;;;;;;;36.50;2.92;;;;;;;22.13;59.19;99194.31;7312347;19;130843;-36
2023/04/22 01:32:26;;;;;;;42.40;3.45;;;;;;;22.14;58.98;99197.75;7314167;19;130480;-38
2023/04/22 01:34:51;;;;;;;34.55;2.83;;;;;;;22.04;59.21;99176.06;7309289;19;129976;-36
2023/04/22 01:37:17;;;;;;;73.75;5.20;;;;;;;22.14;59.53;99197.75;7310876;19;130740;-37
2023/04/22 01:39:42;;;;;;;44.03;3.38;;;;;;;22.14;59.55;99193.34;7310893;19;129416;-33
2023/04/22 01:42:09;;;;;;;60.22;4.28;;;;;;;22.15;59.06;99189.75;7311684;19;130206;-41
2023/04/22 01:44:35;;;;;;;;;;;;;;;22.24;59.49;99193.25;7313988;19;129149;-32
2023/04/22 01:47:00;;;;;;;44.08;3.30;;;;;;;22.07;58.94;99166.13;7312640;19;129080;-36
2023/04/22 01:49:25;;;;;;;70.32;4.78;;;;;;;22.15;59.24;99186.31;7312734;19;130097;-35
2023/04/22 01:51:51;;;;;;;33.90;3.00;;;;;;;22.14;59.21;99182.03;7313514;19;129563;-36
2023/04/22 01:54:16;;;;;;;49.75;3.42;;;;;;;22.14;59.04;99184.66;7312838;19;130266;-40
2023/04/22 01:56:47;;;;;;;38.92;3.15;;;;;;;22.03;58.96;99164.81;7312494;19;129077;-35
2023/04/22 01:59:13;;;;;;;31.25;2.75;;;;;;;22.13;59.60;99185.66;7312705;19;130067;-33
2023/04/22 02:01:38;;;;;;;82.35;5.88;;;;;;;22.08;59.48;99162.53;7311195;19;132360;-34
2023/04/22 02:04:03;;;;;;;46.57;3.30;;;;;;;22.14;59.67;99176.81;7312739;19;129553;-35
2023/04/22 02:06:30;;;;;;;54.15;3.90;;;;;;;22.14;59.49;99176.81;7313830;19;128937;-35
2023/04/22 02:08:55;;;;;;;;;;;;;;;22.21;59.66;99173.44;7316731;19;130463;-36
2023/04/22 02:11:21;;;;;;;37.13;3.27;;;;;;;22.14;59.10;99176.81;7311410;19;129840;-35
2023/04/22 02:13:46;;;;;;;53.47;4.07;;;;;;;22.11;58.74;99164.03;7313180;19;128986;-32
2023/04/22 02:16:11;;;;;;;41.78;3.30;;;;;;;22.15;58.84;99173.22;7312673;19;129143;-33
2023/04/22 02:18:37;;;;;;;54.15;3.65;;;;;;;22.13;59.46;99164.69;7312824;19;129407;-36
2023/04/22 02:21:02;;;;;;;25.02;2.55;;;;;;;22.12;58.70;99165.66;7313725;19;129783;-37
2023/04/22 02:23:28;;;;;;;68.53;4.90;;;;;;;22.13;58.98;99162.09;7311415;19;129321;-38
2023/04/22 02:25:54;;;;;;;26.73;2.45;;;;;;;22.13;58.97;99162.09;7314458;19;129244;-36
2023/04/22 02:28:20;;;;;;;;;;;;;;;22.11;59.07;99140.47;7312617;19;130352;-40
2023/04/22 02:30:45;;;;;;;24.45;2.20;;;;;;;22.12;58.86;99156.00;7312318;19;131047;-38
2023/04/22 02:33:11;;;;;;;30.05;2.67;;;;;;;22.14;58.83;99161.09;7314072;19;129192;-35
2023/04/22 02:35:36;;;;;;;52.87;4.17;;;;;;;22.14;59.10;99150.63;7313330;19;130612;-38
2023/04/22 02:38:02;;;;;;;31.07;2.87;;;;;;;22.05;58.88;99144.50;7313841;19;129050;-40
2023/04/22 02:40:27;;;;;;;16.60;2.03;;;;;;;22.12;59.30;99148.16;7307660;19;129376;-37
2023/04/22 02:42:53;;;;;;;42.58;3.17;;;;;;;22.07;58.72;99155.66;7314399;19;129002;-35
2023/04/22 02:45:18;;;;;;;59.45;4.32;;;;;;;22.05;59.42;99147.13;7313793;19;129162;-37
2023/04/22 02:47:43;;;;;;;35.08;2.92;;;;;;;22.11;59.24;99154.38;7313127;19;129389;-39
2023/04/22 02:50:09;;;;;;;98.40;5.97;;;;;;;22.11;59.02;99150.94;7309651;19;130303;-40
2023/04/22 02:52:34;;;;;;;128.10;7.65;;;;;;;22.11;59.62;99157.00;7312742;19;129178;-40
2023/04/22 02:55:00;;;;;;;32.17;2.80;;;;;;;22.08;59.13;99146.00;7313620;19;128931;-37
2023/04/22 02:57:25;;;;;;;28.00;2.30;;;;;;;22.09;59.43;99152.88;7311095;19;129436;-37
2023/04/22 02:59:51;;;;;;;72.70;4.80;;;;;;;22.07;59.31;99155.66;7304921;19;130404;-38
2023/04/22 03:02:16;;;;;;;42.25;3.05;;;;;;;22.03;59.43;99143.03;7312621;19;129434;-39
2023/04/22 03:04:41;;;;;;;169.80;9.60;;;;;;;22.12;59.63;99157.81;7308729;19;129235;-39
2023/04/22 03:07:07;;;;;;;65.68;4.28;;;;;;;22.12;58.99;99152.56;7316570;19;129531;-38
2023/04/22 03:09:32;;;;;;;40.00;3.00;;;;;;;22.11;59.55;99148.31;7310491;19;130463;-31
2023/04/22 03:11:57;;;;;;;42.90;3.35;;;;;;;22.14;59.02;99150.63;7310425;19;128983;-36
2023/04/22 03:14:23;;;;;;;48.70;3.30;;;;;;;22.11;59.65;99153.56;7311038;19;129362;-36
2023/04/22 03:16:48;;;;;;;68.05;4.97;;;;;;;22.08;58.86;99146.81;7309392;19;129603;-38
2023/04/22 03:19:15;;;;;;;40.40;3.20;;;;;;;22.13;59.62;99154.22;7310821;19;130490;-37
2023/04/22 03:21:40;;;;;;;53.55;3.88;;;;;;;22.11;59.08;99150.94;7312037;19;128953;-37
2023/04/22 03:24:06;;;;;;;58.83;4.43;;;;;;;22.12;59.07;99147.34;7311744;19;129082;-36
2023/04/22 03:26:31;;;;;;;13.38;1.70;;;;;;;22.11;59.75;99143.09;7311417;19;130046;-33
2023/04/22 03:28:57;;;;;;;70.13;4.68;;;;;;;22.12;59.47;99142.09;7310146;19;129686;-38
2023/04/22 03:31:22;;;;;;;85.35;6.15;;;;;;;22.09;59.71;99138.00;7299964;19;129448;-37
2023/04/22 03:33:47;;;;;;;80.93;5.37;;;;;;;22.09;59.29;99135.38;7307861;19;129237;-38
2023/04/22 03:36:13;;;;;;;35.72;3.05;;;;;;;22.01;58.74;99137.13;7312211;19;129935;-34
2023/04/22 03:38:38;;;;;;;41.78;2.95;;;;;;;21.74;58.92;99138.88;7309378;19;129811;-32
2023/04/22 03:41:03;;;;;;;28.53;2.43;;;;;;;21.30;59.21;99142.41;7312558;19;129051;-34
2023/04/22 03:43:29;;;;;;;59.95;4.00;;;;;;;21.13;59.58;99137.13;7310626;19;130942;-35
2023/04/22 03:45:54;;;;;;;68.27;4.73;;;;;;;21.09;59.18;99143.66;7306976;19;130881;-33
2023/04/22 03:48:19;;;;;;;40.38;3.35;;;;;;;21.10;59.34;99143.50;7310780;19;130036;-35
2023/04/22 03:50:45;;;;;;;14.93;1.88;;;;;;;21.12;59.51;99138.91;7308456;19;130818;-39
2023/04/22 03:53:10;;;;;;;35.28;2.85;;;;;;;21.18;59.59;99134.91;7308754;19;130367;-41
2023/04/22 03:55:35;;;;;;;50.27;3.57;;;;;;;21.23;59.04;99138.72;7311887;19;129340;-33
2023/04/22 03:58:01;;;;;;;57.90;4.55;;;;;;;21.26;59.33;99135.81;7310252;19;130440;-32
2023/04/22 04:00:26;;;;;;;30.30;2.60;;;;;;;21.32;59.45;99132.59;7310352;19;129463;-36
2023/04/22 04:02:52;;;;;;;69.97;4.68;;;;;;;21.38;59.08;99136.41;7309979;19;129310;-35
2023/04/22 04:05:17;;;;;;;83.97;5.38;;;;;;;21.48;58.88;99138.00;7309371;19;130046;-34
2023/04/22 04:07:42;;;;;;;30.75;2.60;;;;;;;21.49;59.26;99137.00;7312289;19;130801;-36
2023/04/22 04:10:10;;;;;;;57.42;4.05;;;;;;;21.52;58.69;99138.50;7307423;19;129620;-36
2023/04/22 04:12:35;;;;;;;30.55;2.40;;;;;;;21.52;59.09;99139.31;7309959;19;129210;-37
2023/04/22 04:15:01;;;;;;;61.75;4.40;;;;;;;21.59;58.26;99139.53;7309755;19;129433;-35
2023/04/22 04:17:27;;;;;;;36.92;2.85;;;;;;;21.59;58.48;99144.78;7310755;19;129174;-38
2023/04/22 04:19:53;;;;;;;27.05;2.35;;;;;;;21.47;58.90;99120.63;7309570;19;129585;-37
2023/04/22 04:22:19;;;;;;;12.53;1.40;;;;;;;21.57;58.43;99139.69;7311299;19;129572;-36
2023/04/22 04:24:46;;;;;;;25.75;2.22;;;;;;;21.61;58.91;99133.19;7310768;19;130084;-37
2023/04/22 04:27:12;;;;;;;32.85;2.85;;;;;;;21.63;58.23;99131.25;7307119;19;131182;-31
2023/04/22 04:29:38;;;;;;;26.83;2.47;;;;;;;21.64;58.16;99127.66;7308432;19;129037;-33
2023/04/22 04:32:04;;;;;;;63.80;4.53;;;;;;;21.72;58.55;99130.34;7309312;19;130563;-32
2023/04/22 04:34:30;;;;;;;39.72;2.90;;;;;;;21.76;58.05;99130.88;7312123;19;129590;-35
2023/04/22 04:36:56;;;;;;;26.15;2.22;;;;;;;21.77;58.02;99132.53;7315218;19;130392;-36
2023/04/22 04:39:22;;;;;;;25.27;2.17;;;;;;;21.73;58.20;99141.63;7316957;19;129041;-36
2023/04/22 04:41:48;;;;;;;21.92;1.95;;;;;;;21.74;58.57;99138.88;7317402;19;129252;-35
2023/04/22 04:44:14;;;;;;;67.93;4.65;;;;;;;21.63;58.01;99126.03;7316458;19;129109;-37
2023/04/22 04:46:40;;;;;;;35.65;2.95;;;;;;;21.65;58.66;99144.19;7315690;19;131357;-35
2023/04/22 04:49:08;;;;;;;31.70;3.27;;;;;;;21.64;58.39;99135.50;7316369;19;128773;-37
2023/04/22 04:51:34;;;;;;;37.42;2.80;;;;;;;21.57;58.76;99147.53;7315251;19;128940;-36
2023/04/22 04:53:59;;;;;;;47.10;3.28;;;;;;;21.51;58.78;99132.47;7315913;19;130253;-39
2023/04/22 04:56:24;;;;;;;14.40;1.70;;;;;;;21.46;59.19;99133.88;7316964;19;131070;-36
2023/04/22 04:58:50;;;;;;;29.58;2.60;;;;;;;21.41;59.14;99131.72;7316256;19;131632;-32
2023/04/22 05:01:15;;;;;;;71.32;5.03;;;;;;;21.41;60.04;99130.88;7316343;19;130699;-34
2023/04/22 05:03:41;;;;;;;70.68;5.03;;;;;;;21.42;59.47;99141.19;7314371;19;130773;-32
2023/04/22 05:06:06;;;;;;;39.87;3.40;;;;;;;21.30;59.48;99124.09;7312014;19;130355;-38
2023/04/22 05:08:32;;;;;;;37.77;2.73;;;;;;;21.38;59.91;99137.25;7316413;19;129259;-35
2023/04/22 05:10:57;;;;;;;43.85;3.30;;;;;;;21.38;60.48;99142.47;7315584;19;129333;-32
2023/04/22 05:13:22;;;;;;;42.05;3.20;;;;;;;21.35;60.61;99134.94;7316753;19;129160;-37
2023/04/22 05:15:48;;;;;;;67.57;4.75;;;;;;;21.33;60.09;99139.47;7309529;19;130911;-38
2023/04/22 05:18:13;;;;;;;44.17;3.55;;;;;;;21.30;60.31;99139.78;7311873;19;130981;-34
2023/04/22 05:20:39;;;;;;;65.73;4.70;;;;;;;21.26;60.30;99148.88;7313028;19;130343;-34
2023/04/22 05:23:04;;;;;;;34.50;2.65;;;;;;;21.30;60.50;99138.94;7315534;19;130097;-35
2023/04/22 05:25:30;;;;;;;39.20;2.92;;;;;;;21.21;60.95;99130.19;7312995;19;130734;-32
2023/04/22 05:27:55;;;;;;;56.95;4.45;;;;;;;21.29;60.37;99150.38;7315359;19;129376;-32
2023/04/22 05:30:21;;;;;;;85.40;5.80;;;;;;;21.30;60.24;99152.03;7312889;19;128978;-36
2023/04/22 05:32:46;;;;;;;68.65;4.95;;;;;;;21.30;60.73;99154.66;7314480;19;129187;-34
2023/04/22 05:35:11;;;;;;;33.08;2.72;;;;;;;21.23;60.33;99138.72;7314581;19;130356;-42
2023/04/22 05:37:37;;;;;;;87.43;6.00;;;;;;;21.33;61.30;99151.72;7314493;19;129535;-37
2023/04/22 05:40:03;;;;;;;31.88;2.80;;;;;;;21.36;61.42;99154.88;7308186;19;130474;-41
2023/04/22 05:42:29;;;;;;;72.63;5.20;;;;;;;21.34;61.65;99148.97;7314018;19;129740;-34
2023/04/22 05:44:54;;;;;;;53.53;4.00;;;;;;;21.32;60.87;99147.47;7312515;19;129209;-34
2023/04/22 05:47:19;;;;;;;47.78;3.50;;;;;;;21.38;61.33;99147.72;7313275;19;129057;-37
2023/04/22 05:49:45;;;;;;;37.80;2.90;;;;;;;21.41;61.26;99155.25;7312768;19;130179;-32
2023/04/22 05:52:10;;;;;;;29.13;2.70;;;;;;;21.42;61.83;99158.69;7312716;19;130305;-38
2023/04/22 05:54:36;;;;;;;44.38;3.28;;;;;;;21.47;62.13;99157.25;7314917;19;129134;-37
2023/04/22 05:57:01;;;;;;;49.00;3.50;;;;;;;21.47;61.31;99162.47;7315558;19;129494;-37
2023/04/22 05:59:27;;;;;;;118.90;7.68;;;;;;;21.45;61.39;99153.97;7311378;19;129559;-34
2023/04/22 06:01:52;;;;;;;29.90;2.37;;;;;;;21.29;59.70;99153.81;7313420;19;130366;-36
2023/04/22 06:04:17;;;;;;;25.48;2.28;;;;;;;21.15;60.50;99156.94;7315148;19;129325;-35
2023/04/22 06:06:43;;;;;;;68.70;4.40;;;;;;;21.04;60.74;99151.91;7313697;19;129356;-37
2023/04/22 06:09:08;;;;;;;21.70;1.90;;;;;;;21.08;60.09;99149.81;7315565;19;129644;-32
2023/04/22 06:11:34;;;;;;;55.42;4.03;;;;;;;21.15;60.53;99172.63;7312301;19;131311;-33
2023/04/22 06:14:00;;;;;;;28.88;2.65;;;;;;;21.19;59.73;99160.09;7314504;19;129179;-35
2023/04/22 06:16:26;;;;;;;49.45;3.40;;;;;;;21.21;60.06;99158.97;7314476;19;129428;-41
2023/04/22 06:18:51;;;;;;;20.07;2.00;;;;;;;21.21;59.96;99150.28;7312328;19;129627;-37
2023/04/22 06:21:16;;;;;;;30.45;2.58;;;;;;;21.23;60.31;99164.03;7311185;19;130125;-39
2023/04/22 06:23:42;;;;;;;52.65;3.78;;;;;;;21.21;60.13;99166.81;7314346;19;130498;-33
2023/04/22 06:26:07;;;;;;;41.53;3.50;;;;;;;21.16;59.97;99145.50;7311243;19;129617;-36
2023/04/22 06:28:33;;;;;;;80.43;6.90;;;;;;;21.26;58.64;99159.34;7310688;19;129613;-40
2023/04/22 06:30:58;;;;;;;32.08;4.00;;;;;;;21.27;58.57;99160.97;7311870;19;129603;-37
2023/04/22 06:33:23;;;;;;;65.75;5.93;;;;;;;21.27;58.00;99155.75;7312655;19;130251;-34
2023/04/22 06:35:49;;;;;;;52.80;4.82;;;;;;;21.25;58.62;99157.72;7309349;19;130101;-36
2023/04/22 06:38:14;;;;;;;10.07;2.80;;;;;;;21.28;58.25;99149.56;7314820;19;129298;-35
2023/04/22 06:40:40;;;;;;;91.95;7.95;;;;;;;21.23;58.21;99154.41;7310042;19;130686;-34
2023/04/22 06:43:05;;;;;;;50.17;5.07;;;;;;;21.23;57.81;99154.41;7314233;19;130466;-38
2023/04/22 06:45:31;;;;;;;58.30;5.45;;;;;;;21.19;58.29;99160.91;7313590;19;129196;-38
2023/04/22 06:47:56;;;;;;;34.73;3.97;;;;;;;21.19;57.63;99162.72;7313409;19;129092;-37
2023/04/22 06:50:21;;;;;;;28.02;3.80;;;;;;;21.19;58.53;99163.50;7312697;19;129536;-35
2023/04/22 06:52:47;;;;;;;44.65;4.53;;;;;;;21.22;58.98;99157.97;7310205;19;130879;-33
2023/04/22 06:55:12;;;;;;;39.13;4.50;;;;;;;21.22;59.11;99162.41;7313350;19;129583;-41
2023/04/22 06:57:38;;;;;;;44.85;4.93;;;;;;;21.26;59.17;99167.19;7311219;19;130377;-37
2023/04/22 07:00:05;;;;;;;44.10;4.77;;;;;;;21.26;58.79;99172.41;7309796;19;129777;-34
2023/04/22 07:02:30;;;;;;;61.10;5.47;;;;;;;21.27;58.45;99175.88;7309038;19;131767;-36
2023/04/22 07:04:56;;;;;;;60.63;6.00;;;;;;;21.22;58.42;99171.06;7314221;19;129284;-33
2023/04/22 07:07:21;;;;;;;63.00;5.55;;;;;;;21.27;58.45;99173.25;7309632;19;129255;-37
2023/04/22 07:09:46;;;;;;;59.47;5.97;;;;;;;21.30;58.61;99165.94;7308811;19;130053;-40
2023/04/22 07:12:12;;;;;;;52.30;5.70;;;;;;;21.34;60.09;99169.03;7310368;19;129330;-31
2023/04/22 07:14:42;;;;;;;40.07;5.80;;;;;;;21.41;58.91;99162.25;7307324;19;129182;-38
2023/04/22 07:17:07;;;;;;;58.20;6.03;;;;;;;21.42;58.97;99162.09;7309481;19;129289;-32
2023/04/22 07:19:32;;;;;;;42.47;5.00;;;;;;;21.45;57.88;99161.81;7310614;19;130152;-36
2023/04/22 07:21:58;;;;;;;67.03;6.80;;;;;;;21.49;57.67;99160.56;7311343;19;129384;-36
2023/04/22 07:24:23;;;;;;;28.07;5.77;;;;;;;21.56;56.63;99159.00;7311044;19;129990;-36
2023/04/22 07:26:49;;;;;;;68.60;7.15;;;;;;;21.62;55.98;99155.75;7308750;19;130988;-35
2023/04/22 07:29:14;;;;;;;75.10;8.05;;;;;;;21.71;55.56;99152.25;7310282;19;130128;-34
2023/04/22 07:31:40;;;;;;;74.80;8.20;;;;;;;21.67;55.27;99157.91;7309307;19;130368;-38
2023/04/22 07:34:05;;;;;;;39.40;6.20;;;;;;;21.70;54.40;99158.44;7311608;19;129030;-37
2023/04/22 07:36:31;;;;;;;43.40;6.40;;;;;;;21.68;54.76;99149.91;7308499;19;128949;-30
2023/04/22 07:38:57;;;;;;;64.57;7.30;;;;;;;21.59;54.75;99139.53;7308584;19;130123;-36
2023/04/22 07:41:23;;;;;;;42.27;5.87;;;;;;;21.70;54.07;99153.22;7311761;19;129643;-36
2023/04/22 07:43:48;;;;;;;98.37;9.43;;;;;;;21.68;54.96;99149.91;7308832;19;129288;-36
2023/04/22 07:46:13;;;;;;;35.72;5.78;;;;;;;21.72;54.57;99151.28;7305960;19;129528;-34
2023/04/22 07:48:39;;;;;;;48.28;6.10;;;;;;;21.75;54.75;99150.97;7310096;19;130236;-33
2023/04/22 07:51:04;;;;;;;55.35;7.25;;;;;;;21.76;55.16;99146.56;7309252;19;130744;-38
2023/04/22 07:53:29;;;;;;;38.67;6.20;;;;;;;21.80;56.33;99148.75;7313257;19;129545;-37
2023/04/22 07:55:55;;;;;;;129.30;10.82;;;;;;;21.79;55.81;99147.13;7305200;19;129221;-37
2023/04/22 07:58:20;;;;;;;71.43;7.70;;;;;;;21.80;55.13;99147.91;7310956;19;129991;-37
2023/04/22 08:00:46;;;;;;;65.53;7.38;;;;;;;21.81;54.36;99149.56;7311859;19;130465;-37
2023/04/22 08:03:12;;;;;;;103.95;9.43;;;;;;;21.88;54.96;99140.16;7308120;19;130763;-34
2023/04/22 08:05:38;;;;;;;38.45;5.97;;;;;;;21.90;55.00;99149.47;7309126;19;129084;-37
2023/04/22 08:08:04;;;;;;;58.08;6.50;;;;;;;21.93;55.44;99138.69;7306341;19;129589;-38
2023/04/22 08:10:29;;;;;;;99.73;9.93;;;;;;;21.97;54.94;99139.22;7304807;19;130913;-35
2023/04/22 08:12:54;;;;;;;92.95;9.38;;;;;;;21.96;54.23;99133.16;7308100;19;129428;-39
2023/04/22 08:15:21;;;;;;;139.00;11.53;;;;;;;21.90;54.88;99118.06;7307217;19;130034;-36
2023/04/22 08:17:46;;;;;;;45.03;5.90;;;;;;;22.01;54.35;99137.13;7310781;19;129141;-36
2023/04/22 08:20:14;;;;;;;50.70;6.53;;;;;;;22.03;54.97;99135.19;7305524;19;130535;-34
2023/04/22 08:22:41;;;;;;;31.10;5.38;;;;;;;22.03;54.66;99137.78;7311804;19;128976;-30
2023/04/22 08:25:08;;;;;;;47.38;5.93;;;;;;;22.06;54.81;99138.31;7310044;19;129202;-37
2023/04/22 08:27:33;;;;;;;53.20;6.30;;;;;;;22.06;54.65;99137.47;7311684;19;131591;-37
2023/04/22 08:29:58;;;;;;;84.88;8.30;;;;;;;22.09;54.65;99137.16;7303805;19;129245;-37
2023/04/22 08:32:25;;;;;;;64.18;7.50;;;;;;;21.98;55.15;99125.19;7306903;19;130808;-33
2023/04/22 08:34:50;;;;;;;79.15;7.90;;;;;;;22.07;54.40;99139.13;7307493;19;129355;-37
2023/04/22 08:37:16;;;;;;;45.17;6.37;;;;;;;22.00;55.15;99125.81;7310216;19;129539;-37
2023/04/22 08:39:41;;;;;;;13.07;4.50;;;;;;;22.11;54.70;99130.00;7307735;19;130322;-33
2023/04/22 08:42:08;;;;;;;36.70;5.57;;;;;;;22.11;55.04;99135.22;7312029;19;128902;-36
2023/04/22 08:44:34;;;;;;;67.88;7.43;;;;;;;22.10;54.50;99136.22;7304968;19;129459;-32
2023/04/22 08:47:00;;;;;;;37.85;5.32;;;;;;;22.13;54.74;99133.28;7307311;19;131436;-35
2023/04/22 08:49:26;;;;;;;55.30;6.25;;;;;;;22.13;54.52;99125.44;7307999;19;129253;-33
2023/04/22 08:51:52;;;;;;;42.33;6.05;;;;;;;22.14;54.68;99132.28;7305523;19;129387;-34
2023/04/22 08:54:18;;;;;;;91.78;9.00;;;;;;;22.15;55.24;99131.34;7305199;19;129910;-31
2023/04/22 08:56:44;;;;;;;39.72;5.45;;;;;;;22.15;54.49;99137.38;7309594;19;130313;-37
2023/04/22 08:59:11;;;;;;;42.87;5.77;;;;;;;22.16;54.55;99132.97;7308663;19;129737;-37
2023/04/22 09:01:39;;;;;;;50.22;6.75;;;;;;;22.14;54.85;99127.88;7308695;19;130069;-34
2023/04/22 09:04:05;;;;;;;52.28;5.93;;;;;;;22.13;53.98;99128.03;7309032;19;130512;-38
2023/04/22 09:06:32;;;;;;;54.27;6.60;;;;;;;22.14;54.04;99119.22;7305844;19;131169;-37
2023/04/22 09:08:57;;;;;;;28.57;4.73;;;;;;;22.13;54.09;99136.69;7308310;19;130501;-39
2023/04/22 09:11:29;;;;;;;99.30;8.98;;;;;;;22.14;54.56;99127.88;7306293;19;129961;-31
2023/04/22 09:13:54;;;;;;;95.63;8.40;;;;;;;22.12;54.21;99111.50;7302500;19;130108;-37
2023/04/22 09:16:20;;;;;;;37.47;5.38;;;;;;;22.15;54.46;99120.88;7309395;19;130899;-37
2023/04/22 09:18:45;;;;;;;51.20;6.13;;;;;;;22.16;54.18;99109.41;7312158;19;129512;-32
2023/04/22 09:21:11;;;;;;;33.72;5.05;;;;;;;22.04;54.51;99097.53;7316350;19;129194;-36
2023/04/22 09:24:02;;;;;;;71.95;7.70;;;;;;;22.18;55.20;99104.84;7315051;19;129035;-34
2023/04/22 09:26:29;;;;;;;56.58;6.18;;;;;;;22.13;55.02;99107.09;7314827;19;130367;-34
2023/04/22 09:29:00;;;;;;;56.58;6.22;;;;;;;22.11;54.43;99111.66;7314231;19;129819;-38
2023/04/22 09:31:28;;;;;;;27.58;4.88;;;;;;;22.12;54.70;99100.22;7315564;19;130381;-32
2023/04/22 09:33:58;;;;;;;28.50;4.40;;;;;;;22.12;54.76;99103.66;7311980;19;129085;-32
2023/04/22 09:36:27;;;;;;;74.30;7.38;;;;;;;22.09;54.60;99090.06;7309311;19;128997;-36
2023/04/22 09:38:54;;;;;;;35.05;5.20;;;;;;;22.14;54.13;99103.50;7314429;19;130481;-34
2023/04/22 09:41:30;;;;;;;30.15;4.57;;;;;;;22.11;54.76;99088.94;7316993;19;129996;-34
2023/04/22 09:43:57;;;;;;;44.28;5.85;;;;;;;22.11;54.93;99082.88;7309970;19;129625;-36
2023/04/22 09:46:23;;;;;;;;;;;;;;;22.20;55.20;99095.00;7314785;19;130955;-37
2023/04/22 09:48:49;;;;;;;74.95;7.45;;;;;;;22.02;54.92;99073.31;7313888;19;132003;-34
2023/04/22 09:51:16;;;;;;;32.20;4.67;;;;;;;22.11;54.42;99082.88;7315142;19;129031;-36
2023/04/22 09:53:42;;;;;;;47.72;5.78;;;;;;;22.07;54.82;99076.28;7315060;19;129612;-35
2023/04/22 09:56:08;;;;;;;42.35;5.13;;;;;;;22.02;54.79;99063.66;7314104;19;129753;-35
2023/04/22 09:58:38;;;;;;;50.83;5.38;;;;;;;22.10;54.97;99066.34;7314131;19;129364;-35
2023/04/22 10:01:04;;;;;;;38.63;4.95;;;;;;;22.07;54.87;99071.06;7311569;19;129043;-35
2023/04/22 10:03:30;;;;;;;53.35;6.30;;;;;;;22.11;54.97;99075.00;7312941;19;129423;-37
2023/04/22 10:05:56;;;;;;;75.90;7.03;;;;;;;22.11;55.03;99072.41;7311619;19;130096;-35
2023/04/22 10:08:22;;;;;;;50.97;5.70;;;;;;;22.13;55.01;99075.69;7314014;19;130025;-38
2023/04/22 10:10:47;;;;;;;62.65;6.43;;;;;;;22.11;55.35;99067.16;7313982;19;129480;-36
2023/04/22 10:13:12;;;;;;;15.68;3.83;;;;;;;22.12;55.17;99076.66;7311836;19;130430;-33
2023/04/22 10:15:48;;;;;;;36.38;4.93;;;;;;;22.10;55.69;99065.53;7312659;19;130185;-36
2023/04/22 10:18:18;;;;;;;30.70;4.75;;;;;;;22.11;55.30;99056.69;7312113;19;130302;-36
2023/04/22 10:20:45;;;;;;;47.92;5.53;;;;;;;22.08;54.89;99052.56;7310437;19;129520;-34
2023/04/22 10:23:18;;;;;;;71.45;7.47;;;;;;;21.96;55.55;99052.00;7309822;19;132009;-39
2023/04/22 10:25:48;;;;;;;39.47;5.25;;;;;;;22.08;55.26;99062.25;7307706;19;131533;-35
2023/04/22 10:28:15;;;;;;;37.88;5.10;;;;;;;22.06;55.51;99043.25;7312711;19;129677;-36
2023/04/22 10:30:41;;;;;;;91.75;8.77;;;;;;;22.08;54.96;99067.47;7308599;19;132511;-35
2023/04/22 10:33:22;;;;;;;52.72;7.28;;;;;;;22.11;55.38;99051.44;7314947;19;129673;-38
2023/04/22 10:36:10;;;;;;;56.67;7.53;;;;;;;22.14;55.06;99053.75;7313314;19;130172;-37
2023/04/22 10:38:38;;;;;;;42.63;6.50;;;;;;;22.04;54.96;99042.56;7308016;19;130373;-40
2023/04/22 10:41:04;;;;;;;71.90;8.02;;;;;;;22.07;54.87;99050.94;7311829;19;129779;-36
2023/04/22 10:43:47;;;;;;;67.15;7.70;;;;;;;22.08;55.23;99057.81;7312767;19;131389;-37
2023/04/22 10:46:31;;;;;;;53.40;7.22;;;;;;;22.10;55.25;99061.09;7309987;19;131299;-36
2023/04/22 10:48:57;;;;;;;79.55;8.55;;;;;;;22.08;54.71;99051.78;7311427;19;130485;-37
2023/04/22 10:51:40;;;;;;;121.63;11.07;;;;;;;22.12;55.52;99050.47;7298570;19;130348;-38
2023/04/22 10:54:05;;;;;;;72.18;8.07;;;;;;;22.10;54.38;99049.81;7295516;19;130482;-39
2023/04/22 10:56:31;;;;;;;38.55;5.75;;;;;;;22.10;54.96;99047.22;7312935;19;130327;-37
2023/04/22 10:58:56;;;;;;;37.95;5.85;;;;;;;22.09;54.33;99058.63;7312034;19;129562;-38
2023/04/22 11:01:22;;;;;;;59.47;6.93;;;;;;;22.07;54.85;99030.00;7310523;19;129744;-38
2023/04/22 11:03:47;;;;;;;73.30;7.85;;;;;;;22.11;54.61;99040.97;7311500;19;130017;-39
2023/04/22 11:06:14;;;;;;;42.77;5.93;;;;;;;22.10;54.14;99047.22;7308800;19;129293;-37
2023/04/22 11:08:46;;;;;;;36.33;5.10;;;;;;;22.06;54.40;99036.22;7310921;19;130996;-36
2023/04/22 11:11:13;;;;;;;77.32;7.35;;;;;;;22.08;53.74;99036.06;7310889;19;128922;-38
2023/04/22 11:13:42;;;;;;;44.40;5.93;;;;;;;22.09;54.23;99037.69;7313112;19;129142;-39